KTHA/THA METAR and TAF weather

Enter ICAO airport designator
Station Type Date Time Source
KTHA METAR 2019/10/23 07:15 UTC NOAA

KTHA 230715Z AUTO 00000KT 10SM CLR 05/03 A3011 RMK A01


Station Type Date Time Source
KTHA Decoded METAR 2019/10/23 07:15 UTC NOAA

Station name not available
Oct 23, 2019 - 03:15 AM EDT / 2019.10.23 0715 UTC
Wind: Calm:0
Visibility: 10 mile(s):0
Sky conditions: clear
Temperature: 41 F (5 C)
Dew Point: 37 F (3 C)
Relative Humidity: 86%
Pressure (altimeter): 30.11 in. Hg (1019 hPa)
ob: KTHA 230715Z AUTO 00000KT 10SM CLR 05/03 A3011 RMK A01
cycle: 7

Station Type Date Time Source
KTHA TAF UTC NOAA

Error!

Example: see airport list